Time;durP1;ratioP1;P1;durP2;ratioP2;P2;SDS_P1;SDS_P2;PMS_P1;PMS_P2;Temp;Humidity;BMP_temperature;BMP_pressure;BME280_temperature;BME280_humidity;BME280_pressure;Samples;Min_cycle;Max_cycle;Signal;HPM_P1;HPM_P2
2024/03/01 00:00:19;;;;;;;14.67;8.20;;;;;;;4.02;100.00;100299.88;5033237;28;20476;-70
2024/03/01 00:02:44;;;;;;;16.00;8.50;;;;;;;4.02;100.00;100297.25;5015454;28;20107;-70
2024/03/01 00:05:10;;;;;;;15.40;8.73;;;;;;;4.02;100.00;100297.25;5015435;28;20124;-69
2024/03/01 00:07:36;;;;;;;18.00;9.60;;;;;;;4.01;100.00;100306.09;5015345;28;20053;-69
2024/03/01 00:10:02;;;;;;;19.97;9.87;;;;;;;4.10;100.00;100305.50;5005192;28;20049;-70
2024/03/01 00:12:30;;;;;;;16.73;8.50;;;;;;;4.11;100.00;100301.91;4995168;28;20056;-69
2024/03/01 00:14:55;;;;;;;23.97;10.47;;;;;;;4.03;100.00;100296.34;5022196;28;20056;-70
2024/03/01 00:17:21;;;;;;;22.60;9.63;;;;;;;4.13;100.00;100298.25;5034589;28;20045;-70
2024/03/01 00:19:47;;;;;;;18.23;9.77;;;;;;;4.13;100.00;100286.88;5051805;28;20049;-71
2024/03/01 00:22:13;;;;;;;16.10;8.63;;;;;;;4.17;100.00;100289.22;5050840;28;20541;-71
2024/03/01 00:24:41;;;;;;;18.53;9.10;;;;;;;4.26;100.00;100293.03;5033963;28;20502;-69
2024/03/01 00:27:07;;;;;;;12.77;7.80;;;;;;;4.17;100.00;100289.22;5033139;28;20044;-71
2024/03/01 00:29:34;;;;;;;16.93;8.63;;;;;;;4.19;100.00;100297.00;5049801;28;20049;-70
2024/03/01 00:31:59;;;;;;;19.57;8.77;;;;;;;4.17;100.00;100294.47;5033962;28;20476;-69
2024/03/01 00:34:25;;;;;;;21.97;9.23;;;;;;;4.19;100.00;100308.34;5034947;28;20115;-69
2024/03/01 00:36:51;;;;;;;15.83;8.73;;;;;;;4.22;100.00;100292.38;5047180;28;20130;-70
2024/03/01 00:39:17;;;;;;;18.93;8.50;;;;;;;4.19;100.00;100297.84;5031941;28;20601;-70
2024/03/01 00:41:42;;;;;;;13.30;8.80;;;;;;;4.20;100.00;100298.66;5050309;28;20549;-70
2024/03/01 00:44:09;;;;;;;15.20;8.63;;;;;;;4.19;100.00;100297.00;5050951;28;20044;-70
2024/03/01 00:46:38;;;;;;;11.97;7.50;;;;;;;4.25;100.00;100293.94;5033359;28;20094;-69
2024/03/01 00:49:04;;;;;;;14.93;8.60;;;;;;;4.20;100.00;100299.53;5050810;28;20040;-69
2024/03/01 00:51:30;;;;;;;16.13;8.20;;;;;;;4.22;100.00;100297.63;5052403;28;20041;-69
2024/03/01 00:53:55;;;;;;;21.30;10.50;;;;;;;4.21;100.00;100303.84;5051917;28;20178;-71
2024/03/01 00:56:21;;;;;;;16.70;9.07;;;;;;;4.21;100.00;100295.13;5061347;28;20048;-69
2024/03/01 00:58:47;;;;;;;21.17;9.07;;;;;;;4.17;100.00;100302.34;5053241;28;20044;-70
2024/03/01 01:01:13;;;;;;;18.47;10.30;;;;;;;4.11;100.00;100288.75;5035136;28;20410;-69
2024/03/01 01:03:39;;;;;;;17.83;9.30;;;;;;;4.10;100.00;100298.47;5051365;28;20349;-70
2024/03/01 01:06:05;;;;;;;21.23;9.80;;;;;;;4.05;100.00;100299.69;5052059;28;20479;-70
2024/03/01 01:08:31;;;;;;;20.60;10.13;;;;;;;4.01;100.00;100298.22;5052336;28;20116;-70
2024/03/01 01:10:56;;;;;;;22.77;10.50;;;;;;;4.00;100.00;100307.06;5050941;28;20101;-70
2024/03/01 01:13:22;;;;;;;20.80;9.83;;;;;;;3.98;100.00;100294.00;5050550;28;20429;-70
2024/03/01 01:15:51;;;;;;;20.10;9.37;;;;;;;4.00;100.00;100288.66;5031803;28;20168;-71
2024/03/01 01:18:17;;;;;;;14.93;9.20;;;;;;;3.96;100.00;100295.03;5014156;28;20112;-70
2024/03/01 01:20:44;;;;;;;17.97;8.83;;;;;;;3.96;100.00;100285.38;5031623;28;20128;-69
2024/03/01 01:23:10;;;;;;;15.77;9.33;;;;;;;4.14;100.00;100286.78;5014274;28;20076;-70
2024/03/01 01:25:36;;;;;;;14.50;8.17;;;;;;;4.27;100.00;100295.56;5032623;28;20069;-69
2024/03/01 01:28:03;;;;;;;14.57;8.07;;;;;;;4.30;100.00;100297.13;5031243;28;20494;-69
2024/03/01 01:30:28;;;;;;;18.10;9.00;;;;;;;4.33;100.00;100297.78;5031891;28;20365;-70
2024/03/01 01:32:54;;;;;;;14.53;8.73;;;;;;;4.31;100.00;100294.38;4997754;28;20107;-70
2024/03/01 01:35:20;;;;;;;16.53;9.23;;;;;;;4.23;100.00;100293.22;5014030;28;20337;-70
2024/03/01 01:37:45;;;;;;;20.23;9.90;;;;;;;4.20;100.00;100298.66;4997781;28;20121;-70
2024/03/01 01:40:12;;;;;;;21.60;11.20;;;;;;;4.17;100.00;100304.13;5014550;28;20417;-71
2024/03/01 01:42:39;;;;;;;16.73;9.70;;;;;;;4.21;100.00;100305.63;5014098;28;20049;-70
2024/03/01 01:45:05;;;;;;;15.67;9.10;;;;;;;4.27;100.00;100302.59;4997451;28;20037;-69
2024/03/01 01:47:32;;;;;;;14.70;8.57;;;;;;;4.37;100.00;100306.28;5026227;28;20103;-70
2024/03/01 01:49:59;;;;;;;15.53;8.83;;;;;;;4.46;100.00;100306.50;5031512;28;20049;-70
2024/03/01 01:52:26;;;;;;;12.60;7.50;;;;;;;4.60;100.00;100309.03;5014016;28;20049;-70
2024/03/01 01:54:52;;;;;;;13.97;7.73;;;;;;;4.64;100.00;100307.06;5031108;28;20076;-69
2024/03/01 01:57:18;;;;;;;14.37;8.00;;;;;;;4.70;100.00;100314.53;5013900;28;20081;-69
2024/03/01 01:59:45;;;;;;;12.57;7.40;;;;;;;4.82;100.00;100318.94;5013722;28;20057;-70
2024/03/01 02:02:16;;;;;;;15.50;8.50;;;;;;;4.76;100.00;100320.22;5013788;28;20045;-70
2024/03/01 02:04:42;;;;;;;15.10;8.37;;;;;;;4.77;100.00;100310.53;5030248;28;20045;-69
2024/03/01 02:07:08;;;;;;;17.13;8.87;;;;;;;4.71;100.00;100309.16;5013715;28;20041;-71
2024/03/01 02:09:34;;;;;;;15.97;9.77;;;;;;;4.72;100.00;100312.66;5031901;28;20068;-69
2024/03/01 02:12:00;;;;;;;15.63;9.43;;;;;;;4.62;100.00;100311.56;4998077;28;20127;-70
2024/03/01 02:14:26;;;;;;;16.33;9.23;;;;;;;4.58;100.00;100304.84;5013464;28;20130;-70
2024/03/01 02:16:52;;;;;;;16.40;8.83;;;;;;;4.53;100.00;100318.31;5068247;28;20105;-70
2024/03/01 02:19:17;;;;;;;13.53;8.83;;;;;;;4.52;100.00;100310.53;5071209;28;20071;-70
2024/03/01 02:21:53;;;;;;;14.53;8.50;;;;;;;4.65;100.00;100320.09;5070463;28;20056;-70
2024/03/01 02:24:19;;;;;;;13.53;7.97;;;;;;;4.64;100.00;100322.84;5054056;28;20064;-70
2024/03/01 02:26:45;;;;;;;14.93;7.63;;;;;;;4.66;100.00;100323.56;5087445;28;20044;-69
2024/03/01 02:29:12;;;;;;;14.00;7.63;;;;;;;4.72;100.00;100326.63;5069984;28;20049;-71
2024/03/01 02:31:37;;;;;;;11.93;7.73;;;;;;;4.77;100.00;100327.16;5070956;28;20090;-69
2024/03/01 02:34:03;;;;;;;10.33;6.93;;;;;;;4.82;100.00;100340.84;5070905;28;20080;-69
2024/03/01 02:36:29;;;;;;;10.83;7.17;;;;;;;4.85;100.00;100340.66;5069844;28;20051;-69
2024/03/01 02:38:55;;;;;;;13.60;7.93;;;;;;;4.78;100.00;100335.91;5069966;28;20519;-70
2024/03/01 02:41:20;;;;;;;14.00;8.10;;;;;;;4.84;100.00;100338.13;5070813;28;20049;-70
2024/03/01 02:43:46;;;;;;;11.80;7.60;;;;;;;4.88;100.00;100335.16;5069617;28;20045;-69
2024/03/01 02:46:12;;;;;;;16.83;8.73;;;;;;;4.86;100.00;100339.69;5032789;28;20057;-70
2024/03/01 02:48:37;;;;;;;14.27;9.17;;;;;;;4.81;100.00;100346.22;5048544;28;20082;-69
2024/03/01 02:51:03;;;;;;;15.77;9.00;;;;;;;4.84;100.00;100349.47;5016288;28;20060;-70
2024/03/01 02:53:29;;;;;;;16.43;9.50;;;;;;;4.87;100.00;100348.44;5052207;28;20544;-70
2024/03/01 02:55:55;;;;;;;14.47;8.83;;;;;;;4.89;100.00;100347.38;5051454;28;20044;-70
2024/03/01 02:58:20;;;;;;;16.50;9.67;;;;;;;4.87;100.00;100346.63;5035776;28;20491;-70
2024/03/01 03:00:46;;;;;;;15.73;9.27;;;;;;;4.86;100.00;100344.94;5058595;28;20072;-70
2024/03/01 03:03:12;;;;;;;15.13;9.20;;;;;;;4.86;100.00;100341.47;5053803;28;20042;-70
2024/03/01 03:05:38;;;;;;;15.57;9.17;;;;;;;4.82;100.00;100346.13;5053667;28;20052;-69
2024/03/01 03:08:05;;;;;;;13.93;9.30;;;;;;;4.84;100.00;100346.00;5054734;28;20092;-70
2024/03/01 03:10:31;;;;;;;14.30;8.50;;;;;;;4.90;100.00;100348.22;5036618;28;20200;-70
2024/03/01 03:12:57;;;;;;;16.63;9.93;;;;;;;4.87;100.00;100337.91;5053984;28;20052;-70
2024/03/01 03:15:23;;;;;;;15.43;8.87;;;;;;;4.90;100.00;100342.97;5035703;28;20062;-70
2024/03/01 03:17:49;;;;;;;13.03;8.07;;;;;;;4.97;100.00;100346.84;5034097;28;20044;-69
2024/03/01 03:20:18;;;;;;;15.10;9.73;;;;;;;4.97;100.00;100350.31;5016341;28;20499;-70
2024/03/01 03:22:47;;;;;;;17.67;9.87;;;;;;;4.98;100.00;100351.19;5034047;28;20037;-69
2024/03/01 03:25:16;;;;;;;14.43;9.10;;;;;;;4.93;100.00;100346.22;5016496;28;20156;-70
2024/03/01 03:27:44;;;;;;;14.65;9.07;;;;;;;4.96;100.00;100348.66;5033662;28;20045;-69
2024/03/01 03:30:10;;;;;;;17.13;8.50;;;;;;;4.95;100.00;100354.03;5016384;28;20045;-69
2024/03/01 03:32:36;;;;;;;13.67;8.30;;;;;;;4.91;100.00;100353.38;5033196;28;20534;-70
2024/03/01 03:35:04;;;;;;;16.83;9.70;;;;;;;4.87;100.00;100348.44;5016153;28;20046;-70
2024/03/01 03:37:31;;;;;;;17.80;9.70;;;;;;;4.86;100.00;100352.84;5000050;28;20041;-69
2024/03/01 03:39:56;;;;;;;13.93;8.90;;;;;;;4.81;100.00;100344.41;5016080;28;20045;-70
2024/03/01 03:42:22;;;;;;;14.47;9.07;;;;;;;4.84;100.00;100348.63;5033914;28;20109;-70
2024/03/01 03:44:48;;;;;;;13.83;8.37;;;;;;;4.88;100.00;100361.47;5032914;28;20091;-70
2024/03/01 03:47:13;;;;;;;14.47;8.43;;;;;;;4.97;100.00;100362.63;5033759;28;20480;-69
2024/03/01 03:49:39;;;;;;;17.77;9.47;;;;;;;4.89;100.00;100354.41;5017207;28;20051;-70
2024/03/01 03:52:05;;;;;;;18.07;10.03;;;;;;;4.86;100.00;100367.78;5000618;28;20037;-70
2024/03/01 03:54:31;;;;;;;14.77;8.87;;;;;;;4.81;100.00;100362.00;5015852;28;20045;-70
2024/03/01 03:56:57;;;;;;;15.10;8.63;;;;;;;4.72;100.00;100366.09;5032867;28;20041;-70
2024/03/01 03:59:23;;;;;;;16.57;9.40;;;;;;;4.72;100.00;100365.28;5016665;28;20052;-70
2024/03/01 04:01:49;;;;;;;16.57;9.47;;;;;;;4.80;100.00;100370.84;5015817;28;20175;-67
2024/03/01 04:04:16;;;;;;;15.90;9.83;;;;;;;4.87;100.00;100372.94;5033606;28;20068;-69
2024/03/01 04:06:41;;;;;;;17.67;10.80;;;;;;;4.94;100.00;100370.75;5032703;28;20072;-68
2024/03/01 04:09:10;;;;;;;14.53;8.33;;;;;;;5.05;100.00;100378.75;5033420;28;20456;-68
2024/03/01 04:11:37;;;;;;;12.27;8.43;;;;;;;5.13;100.00;100385.19;5016970;28;20041;-69
2024/03/01 04:14:02;;;;;;;10.67;7.53;;;;;;;5.15;100.00;100380.63;5029819;28;20053;-68
2024/03/01 04:16:31;;;;;;;11.40;7.80;;;;;;;5.28;100.00;100380.63;5051812;28;20707;-69
2024/03/01 04:18:57;;;;;;;10.60;7.50;;;;;;;5.27;100.00;100380.75;5035480;28;20084;-69
2024/03/01 04:21:23;;;;;;;13.73;7.80;;;;;;;5.28;100.00;100383.28;5052059;28;20186;-69
2024/03/01 04:23:48;;;;;;;10.87;7.43;;;;;;;5.36;100.00;100383.59;5035640;28;20107;-70
2024/03/01 04:26:14;;;;;;;11.30;7.17;;;;;;;5.41;100.00;100386.75;5052294;28;20052;-71
2024/03/01 04:28:40;;;;;;;8.93;6.50;;;;;;;5.46;100.00;100392.50;5052633;28;20132;-69
2024/03/01 04:31:07;;;;;;;10.53;7.13;;;;;;;5.48;100.00;100393.25;5053196;28;20041;-69
2024/03/01 04:33:41;;;;;;;11.27;6.90;;;;;;;5.62;100.00;100397.56;5052227;28;20036;-70
2024/03/01 04:36:07;;;;;;;11.00;7.10;;;;;;;5.57;100.00;100411.06;5052882;28;20051;-69
2024/03/01 04:38:33;;;;;;;10.40;7.33;;;;;;;5.63;100.00;100401.88;5034917;28;20430;-70
2024/03/01 04:40:59;;;;;;;14.27;7.80;;;;;;;5.68;100.00;100402.38;5054035;28;20383;-70
2024/03/01 04:43:24;;;;;;;11.97;7.50;;;;;;;5.71;100.00;100404.81;5051995;28;20053;-70
2024/03/01 04:45:50;;;;;;;13.00;8.50;;;;;;;5.73;100.00;100402.91;5051920;28;20388;-70
2024/03/01 04:48:16;;;;;;;12.90;7.87;;;;;;;5.73;100.00;100402.91;5067610;28;20052;-69
2024/03/01 04:50:42;;;;;;;13.47;8.67;;;;;;;5.80;100.00;100414.69;5052523;28;20213;-70
2024/03/01 04:53:08;;;;;;;13.97;8.63;;;;;;;5.77;100.00;100410.50;5050675;28;20136;-70
2024/03/01 04:55:34;;;;;;;12.33;7.97;;;;;;;5.78;100.00;100417.44;5063498;28;20159;-69
2024/03/01 04:58:00;;;;;;;21.00;10.57;;;;;;;5.76;100.00;100415.88;5062317;28;20504;-70
2024/03/01 05:00:25;;;;;;;16.50;10.37;;;;;;;5.77;100.00;100415.75;5077284;28;20044;-71
2024/03/01 05:02:53;;;;;;;15.50;9.77;;;;;;;5.72;100.00;100417.88;5058362;28;20414;-70
2024/03/01 05:05:22;;;;;;;17.43;10.47;;;;;;;5.63;100.00;100413.25;5061144;28;20102;-70
2024/03/01 05:07:48;;;;;;;17.57;11.10;;;;;;;5.61;100.00;100424.88;5060576;28;20504;-69
2024/03/01 05:10:21;;;;;;;18.20;10.83;;;;;;;5.55;100.00;100423.47;5058712;28;20059;-68
2024/03/01 05:12:49;;;;;;;20.70;11.43;;;;;;;5.50;100.00;100420.34;5067326;28;20118;-68
2024/03/01 05:15:16;;;;;;;17.57;10.90;;;;;;;5.44;100.00;100426.03;5045212;28;20085;-68
2024/03/01 05:17:45;;;;;;;18.40;10.90;;;;;;;5.38;100.00;100429.09;5023118;28;20539;-69
2024/03/01 05:20:12;;;;;;;18.77;10.70;;;;;;;5.33;100.00;100433.00;5042248;28;20053;-69
2024/03/01 05:22:39;;;;;;;17.30;10.90;;;;;;;5.22;100.00;100428.47;5040366;28;20045;-70
2024/03/01 05:25:14;;;;;;;20.87;12.03;;;;;;;5.09;100.00;100441.63;5026126;28;20458;-68
2024/03/01 05:27:45;;;;;;;21.83;12.67;;;;;;;4.95;100.00;100440.88;5010456;28;20037;-70
2024/03/01 05:30:23;;;;;;;20.47;13.40;;;;;;;4.93;100.00;100440.97;5009710;28;20049;-70
2024/03/01 05:32:51;;;;;;;24.57;12.97;;;;;;;4.77;100.00;100428.94;5041298;28;20373;-68
2024/03/01 05:35:20;;;;;;;20.73;12.57;;;;;;;4.71;100.00;100426.72;5040049;28;20045;-68
2024/03/01 05:37:47;;;;;;;21.03;12.90;;;;;;;4.61;100.00;100430.91;5022207;28;20047;-74
2024/03/01 05:40:15;;;;;;;19.87;12.97;;;;;;;4.60;100.00;100424.78;4967204;28;20097;-74
2024/03/01 05:42:44;;;;;;;21.03;12.73;;;;;;;4.57;100.00;100422.38;4942547;28;20518;-74
2024/03/01 05:45:11;;;;;;;17.33;12.13;;;;;;;4.59;100.00;100428.38;4983756;28;20046;-74
2024/03/01 05:47:43;;;;;;;23.83;12.93;;;;;;;4.63;100.00;100436.91;4960226;28;20188;-76
2024/03/01 05:50:13;;;;;;;22.47;12.70;;;;;;;4.61;100.00;100423.84;4978280;28;20061;-76
2024/03/01 05:52:44;;;;;;;21.47;13.00;;;;;;;4.64;100.00;100425.44;4956588;28;20137;-76
2024/03/01 05:55:27;;;;;;;20.33;13.70;;;;;;;4.77;100.00;100434.19;4939572;28;20156;-75
2024/03/01 05:58:01;;;;;;;23.03;13.07;;;;;;;4.78;100.00;100433.28;4959543;28;20054;-76
2024/03/01 06:00:28;;;;;;;24.47;14.00;;;;;;;4.71;100.00;100439.88;4895048;28;20050;-75
2024/03/01 06:02:56;;;;;;;21.33;12.77;;;;;;;4.74;100.00;100437.03;4899571;29;20176;-75
2024/03/01 06:05:25;;;;;;;19.97;13.30;;;;;;;4.72;100.00;100445.03;4916397;29;20064;-76
2024/03/01 06:07:50;;;;;;;21.77;11.90;;;;;;;4.81;100.00;100444.41;4912727;29;20052;-75
2024/03/01 06:10:17;;;;;;;19.67;12.97;;;;;;;4.81;100.00;100449.69;4877514;29;20060;-76
2024/03/01 06:12:44;;;;;;;21.10;12.60;;;;;;;4.86;100.00;100449.38;4900465;29;20514;-75
2024/03/01 06:15:12;;;;;;;22.80;14.30;;;;;;;4.89;100.00;100444.75;4903506;28;20062;-76
2024/03/01 06:18:04;;;;;;;18.80;12.10;;;;;;;5.10;100.00;100451.19;4939912;28;20133;-75
2024/03/01 06:20:33;;;;;;;20.70;13.07;;;;;;;5.07;100.00;100450.59;4923049;28;20473;-75
2024/03/01 06:22:59;;;;;;;21.20;13.03;;;;;;;5.08;100.00;100452.25;4938594;28;20057;-75
2024/03/01 06:25:27;;;;;;;19.20;12.17;;;;;;;5.17;100.00;100455.13;4892153;28;20051;-75
2024/03/01 06:27:53;;;;;;;21.97;13.27;;;;;;;5.18;100.00;100459.41;4942547;28;20137;-76
2024/03/01 06:30:19;;;;;;;23.47;12.13;;;;;;;5.23;100.00;100461.75;4888907;29;20051;-75
2024/03/01 06:32:46;;;;;;;20.17;12.27;;;;;;;5.29;100.00;100458.69;4921006;29;20429;-75
2024/03/01 06:35:12;;;;;;;18.50;12.10;;;;;;;5.36;100.00;100459.97;4923823;29;20063;-75
2024/03/01 06:37:38;;;;;;;24.70;14.50;;;;;;;5.35;100.00;100458.25;4923825;29;20462;-75
2024/03/01 06:40:05;;;;;;;18.43;12.17;;;;;;;5.54;100.00;100463.09;4940898;28;20167;-75
2024/03/01 06:42:31;;;;;;;22.33;12.87;;;;;;;5.67;100.00;100467.44;4968038;28;20554;-75
2024/03/01 06:44:59;;;;;;;23.10;13.33;;;;;;;5.79;100.00;100476.28;4976959;28;20062;-75
2024/03/01 06:47:30;;;;;;;18.87;11.80;;;;;;;5.87;100.00;100479.25;4960856;28;20164;-75
2024/03/01 06:49:55;;;;;;;16.95;10.75;;;;;;;5.89;100.00;100480.00;4945259;28;20046;-76
2024/03/01 06:52:22;;;;;;;21.83;12.93;;;;;;;5.85;100.00;100484.63;4960706;28;20164;-75
2024/03/01 06:54:48;;;;;;;20.67;12.97;;;;;;;5.79;100.00;100492.94;4977528;28;20154;-76
2024/03/01 06:57:15;;;;;;;18.87;11.73;;;;;;;5.80;100.00;100493.75;4961079;28;20042;-76
2024/03/01 06:59:40;;;;;;;18.23;12.10;;;;;;;5.82;100.00;100497.19;4960652;28;20050;-76
2024/03/01 07:02:06;;;;;;;22.33;13.23;;;;;;;5.81;100.00;100496.28;4996309;28;20143;-76
2024/03/01 07:04:32;;;;;;;20.88;12.57;;;;;;;5.85;100.00;100500.44;4986499;28;20406;-75
2024/03/01 07:06:58;;;;;;;19.17;12.50;;;;;;;5.91;100.00;100496.53;5030223;28;20065;-76
2024/03/01 07:09:24;;;;;;;23.63;12.73;;;;;;;5.93;100.00;100499.91;4983653;28;20087;-76
2024/03/01 07:11:51;;;;;;;20.08;12.40;;;;;;;6.06;100.00;100506.84;4960690;28;20065;-76
2024/03/01 07:14:17;;;;;;;19.43;12.80;;;;;;;6.12;100.00;100509.03;4941763;28;20605;-76
2024/03/01 07:16:44;;;;;;;20.92;13.00;;;;;;;6.14;100.00;100508.94;4925734;28;20142;-76
2024/03/01 07:19:10;;;;;;;19.57;12.40;;;;;;;6.17;100.00;100509.56;4976657;28;20121;-76
2024/03/01 07:21:39;;;;;;;21.63;13.40;;;;;;;6.23;100.00;100503.84;4976676;28;20054;-76
2024/03/01 07:24:05;;;;;;;18.63;12.27;;;;;;;6.33;100.00;100515.44;4960521;28;20057;-76
2024/03/01 07:26:32;;;;;;;17.98;11.45;;;;;;;6.41;100.00;100518.34;4944738;28;20066;-76
2024/03/01 07:28:58;;;;;;;16.40;11.50;;;;;;;6.49;100.00;100523.06;4928820;28;20110;-76
2024/03/01 07:31:25;;;;;;;22.38;13.55;;;;;;;6.54;100.00;100520.94;4961115;28;20061;-76
2024/03/01 07:33:52;;;;;;;23.42;13.68;;;;;;;6.57;100.00;100531.28;4960277;28;20112;-76
2024/03/01 07:36:18;;;;;;;22.52;13.38;;;;;;;6.55;100.00;100530.56;4947070;28;20176;-76
2024/03/01 07:38:47;;;;;;;19.73;12.93;;;;;;;6.53;100.00;100524.56;4938917;28;20056;-76
2024/03/01 07:41:13;;;;;;;18.98;13.35;;;;;;;6.40;100.00;100529.03;4963000;28;20152;-76
2024/03/01 07:43:39;;;;;;;22.07;14.33;;;;;;;6.35;100.00;100523.25;4963210;28;20056;-76
2024/03/01 07:46:05;;;;;;;23.52;15.45;;;;;;;6.25;100.00;100523.06;5012499;28;20155;-76
2024/03/01 07:48:32;;;;;;;27.02;15.85;;;;;;;6.21;100.00;100526.84;4983146;28;20136;-76
2024/03/01 07:50:58;;;;;;;21.38;13.93;;;;;;;6.24;100.00;100515.25;4983061;28;20118;-76
2024/03/01 07:53:24;;;;;;;20.88;13.05;;;;;;;6.31;100.00;100511.22;4997653;28;20055;-76
2024/03/01 07:55:51;;;;;;;22.42;12.80;;;;;;;6.43;100.00;100513.81;5002657;28;20052;-76
2024/03/01 07:58:18;;;;;;;19.67;12.73;;;;;;;6.58;100.00;100515.34;5015799;28;20390;-76
2024/03/01 08:00:50;;;;;;;16.85;11.43;;;;;;;6.72;100.00;100514.31;5040262;28;20048;-76
2024/03/01 08:03:17;;;;;;;19.00;11.82;;;;;;;6.85;100.00;100512.50;5039171;28;20056;-76
2024/03/01 08:05:43;;;;;;;20.20;12.48;;;;;;;6.97;100.00;100516.84;5035714;28;20927;-76
2024/03/01 08:08:10;;;;;;;20.98;13.07;;;;;;;7.06;100.00;100513.53;5016485;28;20048;-76
2024/03/01 08:10:42;;;;;;;19.00;12.18;;;;;;;7.12;100.00;100513.06;5019407;28;20037;-76
2024/03/01 08:13:09;;;;;;;26.73;15.85;;;;;;;6.93;100.00;100513.59;5002873;28;20045;-76
2024/03/01 08:15:43;;;;;;;21.38;13.98;;;;;;;6.94;100.00;100506.53;5002442;28;20472;-76
2024/03/01 08:18:20;;;;;;;22.88;13.88;;;;;;;7.12;100.00;100509.59;5036556;28;20045;-76
2024/03/01 08:21:05;;;;;;;21.15;13.30;;;;;;;7.34;100.00;100530.78;5020851;28;20117;-75
2024/03/01 08:23:41;;;;;;;24.42;13.27;;;;;;;7.39;100.00;100521.56;4971222;28;20441;-76
2024/03/01 08:26:13;;;;;;;22.35;12.73;;;;;;;7.48;100.00;100517.38;5036283;28;20041;-76
2024/03/01 08:28:41;;;;;;;;;;;;;;;7.71;100.00;100524.38;5019007;28;20040;-76
2024/03/01 08:31:24;;;;;;;22.20;13.73;;;;;;;7.83;100.00;100518.13;5035021;28;19916;-76
2024/03/01 08:33:56;;;;;;;21.60;12.70;;;;;;;7.88;100.00;100515.97;5036146;28;20040;-76
2024/03/01 08:36:24;;;;;;;26.92;14.75;;;;;;;7.69;100.00;100507.78;5055631;28;20049;-75
2024/03/01 08:39:19;;;;;;;24.17;14.05;;;;;;;7.89;100.00;100512.38;5019735;28;20041;-75
2024/03/01 08:41:48;;;;;;;23.40;13.68;;;;;;;7.92;100.00;100517.41;5001685;28;20049;-76
2024/03/01 08:44:25;;;;;;;26.10;14.07;;;;;;;8.06;100.00;100519.81;5001784;28;20134;-75
2024/03/01 08:46:51;;;;;;;30.58;15.93;;;;;;;8.16;100.00;100516.31;5002431;28;20094;-75
2024/03/01 08:49:42;;;;;;;28.80;16.13;;;;;;;8.46;100.00;100527.16;4993956;28;20057;-76
2024/03/01 08:52:31;;;;;;;29.05;15.68;;;;;;;8.47;100.00;100518.25;4978007;28;20085;-75
2024/03/01 08:55:26;;;;;;;23.95;15.00;;;;;;;8.63;100.00;100525.78;4977872;28;20052;-75
2024/03/01 08:57:55;;;;;;;33.88;15.05;;;;;;;8.69;100.00;100520.00;4994085;28;20103;-76
2024/03/01 09:00:39;;;;;;;20.50;14.07;;;;;;;8.92;100.00;100529.56;4876532;29;20060;-75
2024/03/01 09:03:29;;;;;;;20.73;12.55;;;;;;;9.12;100.00;100523.47;4832930;29;20485;-75
2024/03/01 09:06:01;;;;;;;23.35;14.00;;;;;;;9.28;100.00;100529.19;4860918;29;20076;-76
2024/03/01 09:08:32;;;;;;;24.40;14.93;;;;;;;9.40;100.00;100520.19;4831101;29;20045;-76
2024/03/01 09:10:58;;;;;;;21.27;13.55;;;;;;;9.47;100.00;100526.66;4846067;29;20097;-76
2024/03/01 09:13:26;;;;;;;21.30;13.88;;;;;;;9.63;100.00;100527.03;4830623;29;20061;-76
2024/03/01 09:15:55;;;;;;;21.13;12.93;;;;;;;9.73;100.00;100525.28;4876224;29;20698;-77
2024/03/01 09:18:49;;;;;;;21.95;13.25;;;;;;;9.87;100.00;100530.25;4860959;29;20117;-76
2024/03/01 09:21:39;;;;;;;18.45;12.07;;;;;;;9.96;100.00;100537.41;4876135;29;20400;-76
2024/03/01 09:24:05;;;;;;;21.27;13.38;;;;;;;9.93;100.00;100531.53;4883699;29;20146;-76
2024/03/01 09:26:35;;;;;;;23.67;13.15;;;;;;;10.00;100.00;100530.88;4917460;29;20067;-76
2024/03/01 09:29:04;;;;;;;21.52;12.80;;;;;;;10.00;100.00;100532.69;4908768;29;20055;-76
2024/03/01 09:31:31;;;;;;;20.17;12.80;;;;;;;9.93;100.00;100531.53;4963934;28;20140;-75
2024/03/01 09:34:01;;;;;;;22.42;12.38;;;;;;;9.99;100.00;100529.19;5043334;28;20067;-78
2024/03/01 09:36:27;;;;;;;19.17;11.98;;;;;;;10.02;100.00;100523.59;5004010;28;20049;-76
2024/03/01 09:39:04;;;;;;;20.23;13.13;;;;;;;10.07;100.00;100526.75;5021894;28;20063;-75
2024/03/01 09:42:28;;;;;;;22.20;13.73;;;;;;;10.27;100.00;100520.53;5024240;28;20053;-76
2024/03/01 09:45:32;;;;;;;18.70;12.68;;;;;;;10.55;100.00;100518.94;5051623;28;20071;-76
2024/03/01 09:48:39;;;;;;;21.75;13.77;;;;;;;10.91;100.00;100522.75;5034644;28;20059;-78
2024/03/01 09:51:33;;;;;;;23.92;13.82;;;;;;;11.07;100.00;100518.56;5017954;28;20141;-77
2024/03/01 09:54:03;;;;;;;18.77;12.30;;;;;;;11.18;100.00;100523.75;5034978;28;20467;-76
2024/03/01 09:56:58;;;;;;;20.92;13.00;;;;;;;11.32;100.00;100520.69;5019265;28;20040;-76
2024/03/01 10:00:00;;;;;;;17.67;11.75;;;;;;;11.55;100.00;100519.38;4954931;28;20048;-76
2024/03/01 10:02:41;;;;;;;22.02;13.55;;;;;;;11.93;100.00;100521.97;5032419;28;20044;-77
2024/03/01 10:05:23;;;;;;;21.38;14.25;;;;;;;12.14;100.00;100512.94;5016639;28;20044;-78
2024/03/01 10:07:59;;;;;;;24.45;14.95;;;;;;;12.31;100.00;100521.00;5018393;28;20427;-76
2024/03/01 10:11:10;;;;;;;22.05;13.80;;;;;;;12.72;100.00;100515.13;5051477;28;20079;-77
2024/03/01 10:14:25;;;;;;;24.60;14.07;;;;;;;12.96;100.00;100515.38;5010013;28;20072;-76
2024/03/01 10:17:11;;;;;;;25.70;14.80;;;;;;;13.31;100.00;100504.75;4952002;29;20055;-76
2024/03/01 10:19:58;;;;;;;21.30;14.27;;;;;;;13.91;100.00;100505.66;4913455;29;20048;-75
2024/03/01 10:22:54;;;;;;;19.20;12.68;;;;;;;14.68;94.77;100500.19;4880372;29;20052;-76
2024/03/01 10:25:40;;;;;;;19.23;13.10;;;;;;;15.83;84.65;100493.69;4864054;29;20059;-76
2024/03/01 10:28:18;;;;;;;24.63;14.93;;;;;;;15.55;74.77;100492.41;4881901;29;20040;-76
2024/03/01 10:31:04;;;;;;;24.45;14.40;;;;;;;14.50;77.60;100494.94;4881995;29;20052;-76
2024/03/01 10:33:50;;;;;;;25.42;14.90;;;;;;;14.16;84.16;100486.06;4866150;29;20044;-75
2024/03/01 10:36:31;;;;;;;21.95;14.73;;;;;;;14.17;85.80;100498.47;4897055;29;20084;-75
2024/03/01 10:39:09;;;;;;;24.10;14.38;;;;;;;13.64;85.29;100502.31;4882119;29;20051;-76
2024/03/01 10:41:54;;;;;;;23.35;14.02;;;;;;;12.94;90.03;100495.19;4882039;29;20063;-76
2024/03/01 10:44:21;;;;;;;20.42;13.02;;;;;;;12.33;97.02;100491.53;4878566;29;20049;-76
2024/03/01 10:47:13;;;;;;;19.02;12.82;;;;;;;12.36;100.00;100494.72;4900594;28;20139;-76
2024/03/01 10:50:06;;;;;;;20.35;12.32;;;;;;;12.53;100.00;100498.44;4940995;28;20481;-76
2024/03/01 10:53:00;;;;;;;18.10;10.70;;;;;;;13.03;100.00;100497.81;4942617;28;20197;-76
2024/03/01 10:55:39;;;;;;;16.27;10.60;;;;;;;13.46;95.80;100499.69;4952819;28;20061;-76
2024/03/01 10:58:42;;;;;;;16.20;10.57;;;;;;;13.67;92.43;100504.69;4955353;28;20079;-75
2024/03/01 11:02:07;;;;;;;14.38;9.52;;;;;;;13.70;91.16;100504.38;4942937;28;20113;-76
2024/03/01 11:04:41;;;;;;;12.70;8.68;;;;;;;13.57;91.04;100505.63;4915939;29;20503;-75
2024/03/01 11:07:53;;;;;;;13.98;9.38;;;;;;;13.31;91.86;100496.75;4942688;28;20473;-76
2024/03/01 11:10:57;;;;;;;15.18;9.25;;;;;;;13.15;93.26;100509.94;4942775;28;20042;-75
2024/03/01 11:13:35;;;;;;;14.07;9.65;;;;;;;12.82;94.82;100515.91;4978430;28;20062;-78
2024/03/01 11:16:12;;;;;;;17.50;11.65;;;;;;;12.29;97.07;100511.44;4935343;28;20187;-77
2024/03/01 11:18:54;;;;;;;19.73;12.35;;;;;;;11.81;100.00;100509.81;4957558;28;20089;-78
2024/03/01 11:21:33;;;;;;;18.75;11.55;;;;;;;11.48;100.00;100507.66;4953958;28;20474;-81
2024/03/01 11:24:38;;;;;;;15.82;10.75;;;;;;;11.32;100.00;100506.53;4924077;28;20434;-77
2024/03/01 11:27:14;;;;;;;19.60;11.88;;;;;;;10.90;100.00;100508.63;4909098;29;20066;-77
2024/03/01 11:30:19;;;;;;;19.73;12.07;;;;;;;10.63;100.00;100510.28;4922664;29;20060;-75